Flight Track Log - Related Links

Times and Time Zones

All times are in EDT time to prevent confusion due to time zone crossing. See the FLG3735 flight status page for this flight to view local times or setup timezone preferences in your user account.

Time Position Orientation Groundspeed Altitude Reporting Facility
EDT Latitude Longitude Course Direction KTS MPH feet Rate Location/Type
Tue 10:16:34 PM 42.2333 -83.3317 71° East 160 184 1,500  Level Cleveland Center
Tue 10:17:05 PM 42.2528 -83.3128 36° Northeast 173 199 2,500 1,976 Climbing Cleveland Center
Tue 10:17:59 PM 42.2953 -83.2781 31° Northeast 230 265 4,300 2,296 Climbing Cleveland Center
Tue 10:19:00 PM 42.3531 -83.2158 39° Northeast 270 311 6,900 2,393 Climbing Cleveland Center
Tue 10:20:00 PM 42.3188 -82.7288 82° East  Level FlightAware Approximate
Tue 10:20:47 PM 42.3547 -83.0389 89° East 297 342 11,000  Level Cleveland Center
Tue 10:21:00 PM 42.3366 -82.5702 71° East  Level FlightAware Approximate
Tue 10:21:47 PM 42.3594 -82.9156 87° East 304 350 12,400  Level Cleveland Center
Tue 10:22:47 PM 42.3600 -82.7861 90° East 325 374 14,200 1,800 Climbing Cleveland Center
Tue 10:23:47 PM 42.3644 -82.6514 87° East 340 391 16,000 1,650 Climbing Cleveland Center
Tue 10:24:47 PM 42.3669 -82.5139 89° East 359 413 17,500 1,450 Climbing Cleveland Center
Tue 10:25:47 PM 42.3631 -82.3703 92° East 370 426 18,900 1,300 Climbing Cleveland Center
Tue 10:26:47 PM 42.3589 -82.2269 92° East 375 432 20,100 1,300 Climbing Cleveland Center
Tue 10:27:47 PM 42.3528 -82.0639 93° East 381 438 21,500 1,200 Climbing Cleveland Center
Tue 10:28:47 PM 42.3442 -81.9119 94° East 395 455 22,500 750 Climbing Cleveland Center
Tue 10:29:47 PM 42.3394 -81.7714 93° East 403 464 23,000 650 Climbing Cleveland Center
Tue 10:30:47 PM 42.3325 -81.6139 93° East 413 475 23,800 750 Climbing Cleveland Center
Tue 10:31:47 PM 42.3256 -81.4539 93° East 425 489 24,500 700 Climbing Cleveland Center
Tue 10:32:47 PM 42.3164 -81.2908 94° East 430 495 25,200 700 Climbing Cleveland Center
Tue 10:33:47 PM 42.3089 -81.1278 94° East 430 495 25,900 700 Climbing Cleveland Center
Tue 10:34:47 PM 42.3011 -80.9622 94° East 440 506 26,600 700 Climbing Cleveland Center
Tue 10:35:47 PM 42.2892 -80.7797 95° East 440 506 27,300 600 Climbing Cleveland Center
Tue 10:36:47 PM 42.3017 -80.6142 84° East 440 506 27,800 500 Climbing Cleveland Center
Tue 10:37:47 PM 42.3164 -80.4483 83° East 440 506 28,300 500 Climbing Cleveland Center
Tue 10:38:47 PM 42.3328 -80.2797 82° East 450 518 28,800 350 Climbing Cleveland Center
Tue 10:39:47 PM 42.3489 -80.1111 83° East 450 518 29,000 100 Climbing Cleveland Center
Tue 10:40:47 PM 42.3647 -79.9536 82° East 455 524 29,000  Level Cleveland Center
Tue 10:41:47 PM 42.3783 -79.7794 84° East 465 535 29,000  Level Cleveland Center
Tue 10:42:47 PM 42.3936 -79.5992 83° East 470 541 29,000  Level Cleveland Center
Tue 10:43:47 PM 42.4106 -79.4161 83° East 476 548 29,000  Level Cleveland Center
Tue 10:44:47 PM 42.4253 -79.2358 84° East 484 557 29,000  Level Cleveland Center
Tue 10:45:47 PM 42.4417 -79.0469 83° East 484 557 29,000 -50 Level Cleveland Center
Tue 10:46:47 PM 42.4575 -78.8494 84° East 483 556 28,900 -500 Descending Cleveland Center
Tue 10:47:47 PM 42.4733 -78.6633 83° East 483 556 28,000 -500 Descending Cleveland Center
Tue 10:48:47 PM 42.4869 -78.4856 84° East 482 555 27,900 -650 Descending Cleveland Center
Tue 10:49:47 PM 42.5003 -78.3078 84° East 482 555 26,700 -1,150 Descending Cleveland Center
Tue 10:50:47 PM 42.5133 -78.1325 84° East 482 555 25,600 -850 Descending Cleveland Center
Tue 10:51:47 PM 42.5261 -77.9572 84° East 476 548 25,000 -300 Descending Cleveland Center
Tue 10:52:47 PM 42.5389 -77.7906 84° East 460 529 25,000  Level Cleveland Center
Tue 10:53:47 PM 42.5492 -77.6097 86° East 460 529 25,000  Level Cleveland Center
Tue 10:54:47 PM 42.5608 -77.4258 85° East 471 542 25,000  Level Cleveland Center
Tue 10:56:31 PM 42.5839 -77.1078 84° East 498 573 25,000  Level Boston Center
Tue 10:57:31 PM 42.5956 -76.9225 85° East 498 573 25,000  Level Boston Center
Tue 10:58:31 PM 42.6067 -76.7369 85° East 493 567 25,000  Level Boston Center
Tue 10:59:31 PM 42.6178 -76.5486 85° East 493 567 25,000  Level Boston Center
Tue 11:00:31 PM 42.6308 -76.3631 84° East 493 567 25,000  Level Boston Center
Tue 11:01:31 PM 42.6406 -76.1944 85° East 493 567 25,000  Level Boston Center
Tue 11:02:31 PM 42.6489 -76.0056 87° East 499 574 25,000 -200 Level Boston Center
Tue 11:03:31 PM 42.6608 -75.8200 85° East 494 568 24,600 -600 Descending Boston Center
Tue 11:04:31 PM 42.6669 -75.6761 87° East 487 560 23,800 -1,000 Descending Boston Center
Tue 11:05:31 PM 42.6792 -75.4622 85° East 473 544 22,600 -1,300 Descending Boston Center
Tue 11:06:31 PM 42.6858 -75.2872 87° East 468 539 21,200 -1,400 Descending Boston Center
Tue 11:07:31 PM 42.6942 -75.1125 86° East 458 527 19,800 -1,550 Descending Boston Center
Tue 11:08:31 PM 42.7047 -74.9236 86° East 458 527 18,100 -1,400 Descending Boston Center
Tue 11:09:31 PM 42.7103 -74.7514 87° East 458 527 17,000 -1,304 Descending Boston Center
Tue 11:10:03 PM 42.7119 -74.6725 88° East 444 511 16,100 -1,487 Descending Boston Center
Tue 11:11:28 PM 42.7244 -74.4439 86° East 402 463 14,100 -1,697 Descending Boston Center
Tue 11:12:28 PM 42.7122 -74.3078 97° East 351 404 12,000 -2,132 Descending Boston Center
Tue 11:13:29 PM 42.6997 -74.1831 98° East 325 374 9,800 -2,115 Descending Boston Center
Tue 11:14:30 PM 42.6867 -74.0811 100° East 270 311 7,700 -2,231 Descending Boston Center
Tue 11:15:30 PM 42.6756 -73.9708 98° East 260 299 5,300 -2,400 Descending Boston Center

Login

Don't have an account? Register now (free) for customized features, flight alerts, and more!